Flight Track Log - Related Links

Times and Time Zones

All times are in EDT time to prevent confusion due to time zone crossing. See the CHQ6100 flight status page for this flight to view local times or setup timezone preferences in your user account.


Time Position Orientation Groundspeed Altitude Reporting Facility
EDT Latitude Longitude Course Direction KTS MPH feet Rate Location/Type
Wed 04:38:54 PM 41.3939 -81.8897 73° East 176 203 1,700  Level Cleveland Center
Wed 04:39:43 PM 41.3953 -81.9461 272° West 184 212 3,400 2,203 Climbing Cleveland Center
Wed 04:40:13 PM 41.3936 -81.9817 266° West 194 223 4,600 1,905 Climbing Cleveland Center
Wed 04:40:46 PM 41.4158 -82.0047 322° Northwest 202 232 5,400 1,667 Climbing Cleveland Center
Wed 04:41:07 PM 41.4375 -81.9861 33° Northeast 249 287 6,100 1,935 Climbing Cleveland Center
Wed 04:41:48 PM 41.4689 -81.9425 46° Northeast 255 293 7,400 1,981 Climbing Cleveland Center
Wed 04:42:00 PM 41.7742 -81.4758 37° Northeast  Level FlightAware Approximate
Wed 04:42:50 PM 41.5222 -81.8678 46° Northeast 269 310 9,500  Level Cleveland Center
Wed 04:43:00 PM 41.8382 -81.3589 75° East  Level FlightAware Approximate
Wed 04:43:52 PM 41.5806 -81.7858 46° Northeast 294 338 11,000  Level Cleveland Center
Wed 04:44:00 PM 41.8603 -81.2054 73° East  Level FlightAware Approximate
Wed 04:44:54 PM 41.6453 -81.6928 47° Northeast 333 383 12,000  Level Cleveland Center
Wed 04:45:57 PM 41.7150 -81.5942 47° Northeast 357 411 13,100 1,248 Climbing Cleveland Center
Wed 04:46:59 PM 41.7875 -81.4931 46° Northeast 367 422 14,600 1,452 Climbing Cleveland Center
Wed 04:48:01 PM 41.8494 -81.3506 60° Northeast 386 444 16,100 1,210 Climbing Cleveland Center
Wed 04:49:03 PM 41.8736 -81.2017 78° East 403 464 17,100 1,016 Climbing Cleveland Center
Wed 04:50:05 PM 41.8981 -81.0472 78° East 413 475 18,200 1,016 Climbing Cleveland Center
Wed 04:51:07 PM 41.9233 -80.8925 78° East 420 483 19,200 1,008 Climbing Cleveland Center
Wed 04:52:10 PM 41.9475 -80.7344 78° East 424 488 20,300 1,008 Climbing Cleveland Center
Wed 04:53:12 PM 41.9731 -80.5747 78° East 431 496 21,300 968 Climbing Cleveland Center
Wed 04:54:14 PM 41.9983 -80.4119 78° East 437 503 22,300 1,113 Climbing Cleveland Center
Wed 04:55:16 PM 42.0292 -80.2194 78° East 444 511 23,600 1,113 Climbing Cleveland Center
Wed 04:56:18 PM 42.0536 -80.0508 79° East 451 519 24,600 960 Climbing Cleveland Center
Wed 04:57:21 PM 42.0767 -79.8758 80° East 453 521 25,600 816 Climbing Cleveland Center
Wed 04:58:23 PM 42.0619 -79.7006 96° East 476 548 26,300 677 Climbing Cleveland Center
Wed 04:59:25 PM 42.0444 -79.5225 97° East 479 551 27,000 339 Climbing Cleveland Center
Wed 05:00:27 PM 42.0264 -79.3386 97° East 500 575 27,000  Level Cleveland Center
Wed 05:01:29 PM 42.0064 -79.1500 98° East 509 586 27,000  Level Cleveland Center
Wed 05:02:32 PM 41.9825 -78.9181 98° East 521 600 27,000  Level Cleveland Center
Wed 05:03:34 PM 41.9625 -78.7242 98° East 522 601 27,000  Level Cleveland Center
Wed 05:04:36 PM 41.9403 -78.5292 99° East 528 608 27,000  Level Cleveland Center
Wed 05:05:38 PM 41.9192 -78.3331 98° East 529 609 27,000  Level Cleveland Center
Wed 05:07:29 PM 41.8778 -77.9775 99° East 545 627 27,000  Level New York Center
Wed 05:08:29 PM 41.8475 -77.7850 102° East 545 627 27,000  Level New York Center
Wed 05:09:28 PM 41.8000 -77.5989 109° East 538 619 27,000  Level New York Center
Wed 05:10:27 PM 41.7481 -77.4131 110° East 532 612 27,000  Level New York Center
Wed 05:11:28 PM 41.6978 -77.2272 110° East 532 612 27,000  Level New York Center
Wed 05:12:28 PM 41.6494 -77.0450 109° East 525 604 27,000  Level New York Center
Wed 05:13:27 PM 41.5986 -76.8597 110° East 525 604 27,000  Level New York Center
Wed 05:14:27 PM 41.5472 -76.6778 111° Southeast 520 598 27,000  Level New York Center
Wed 05:15:27 PM 41.4981 -76.4933 110° East 520 598 27,000  Level New York Center
Wed 05:16:28 PM 41.4431 -76.2922 110° East 520 598 27,000  Level New York Center
Wed 05:17:29 PM 41.3911 -76.1081 111° Southeast 525 604 27,000 -50 Level New York Center
Wed 05:18:27 PM 41.3403 -75.9356 111° Southeast 512 589 26,900  Descending New York Center
Wed 05:19:28 PM 41.2917 -75.7578 110° East 507 583 27,000 -545 Climbing New York Center
Wed 05:20:28 PM 41.2364 -75.5828 113° Southeast 507 583 25,800 -1,686 Descending New York Center
Wed 05:21:29 PM 41.1806 -75.4161 114° Southeast 501 577 23,600 -1,388 Descending New York Center
Wed 05:22:29 PM 41.1319 -75.2722 114° Southeast 461 531 23,000 -303 Descending New York Center
Wed 05:23:28 PM 41.0869 -75.1453 115° Southeast 426 490 23,000  Level New York Center
Wed 05:24:29 PM 41.0439 -75.0106 113° Southeast 399 459 23,000 -50 Level New York Center
Wed 05:25:28 PM 41.0022 -74.8897 115° Southeast 399 459 22,900  Descending New York Center
Wed 05:26:29 PM 40.9697 -74.7447 106° East 400 460 23,000 -367 Climbing New York Center
Wed 05:28:28 PM 40.8869 -74.4764 112° Southeast 397 457 21,800 -1,000 Descending New York Center
Wed 05:29:29 PM 40.8450 -74.3481 113° Southeast 380 437 20,000 -1,400 Descending New York Center
Wed 05:30:28 PM 40.8264 -74.1989 99° East 373 429 19,000 -674 Descending New York Center
Wed 05:30:58 PM 40.8167 -74.1333 101° East 362 417 19,000 -357 Level New York TRACON
Wed 05:31:52 PM 40.7667 -74.0333 123° Southeast 346 398 18,500 -1,000 Descending New York TRACON
Wed 05:32:52 PM 40.6833 -74.0000 163° South 338 389 17,100 -1,650 Descending New York TRACON
Wed 05:33:52 PM 40.5833 -73.9667 166° South 334 384 15,200 -2,000 Descending New York TRACON
Wed 05:34:58 PM 40.5000 -73.9333 163° South 314 361 12,900 -2,200 Descending New York TRACON
Wed 05:35:52 PM 40.4333 -73.9333 180° South 280 322 10,800 -2,421 Descending New York TRACON
Wed 05:36:52 PM 40.3500 -73.9000 163° South 282 325 8,300 -2,412 Descending New York TRACON
Wed 05:37:29 PM 40.3319 -73.8531 117° Southeast 262 302 6,900 -2,274 Descending New York Center
Wed 05:38:27 PM 40.2842 -73.7667 126° Southeast 273 314 4,700 -1,475 Descending New York Center
Wed 05:39:27 PM 40.2444 -73.6886 124° Southeast 275 316 4,000 -295 Descending New York Center
Wed 05:40:29 PM 40.2442 -73.6097 90° East 225 259 4,100  Climbing New York Center
Wed 05:41:27 PM 40.3092 -73.5936 11° North 196 226 4,000 -51 Descending New York Center
Wed 05:42:27 PM 40.3700 -73.5742 14° North 211 243 4,000  Level New York Center
Wed 05:42:58 PM 40.4000 -73.5667 11° North 230 265 4,000  Level New York TRACON
Wed 05:43:58 PM 40.4500 -73.5167 37° Northeast 237 273 4,000  Level New York TRACON
Wed 05:44:58 PM 40.5167 -73.4833 21° North 235 270 4,000  Level New York TRACON
Wed 05:45:58 PM 40.5833 -73.4500 21° North 227 261 4,000 -250 Level New York TRACON
Wed 05:46:58 PM 40.6333 -73.4667 346° North 221 254 3,500 -500 Descending New York TRACON
Wed 05:47:58 PM 40.7000 -73.4833 349° North 218 251 3,000 -450 Descending New York TRACON
Wed 05:48:58 PM 40.7500 -73.5167 333° Northwest 222 255 2,600 -476 Descending New York TRACON
Wed 05:50:04 PM 40.7667 -73.6000 285° West 215 247 2,000 -250 Descending New York TRACON
Wed 05:50:58 PM 40.7667 -73.6667 270° West 211 243 2,100 -200 Climbing New York TRACON
Wed 05:52:04 PM 40.7167 -73.7000 207° Southwest 158 182 1,600 -619 Descending New York TRACON
Wed 05:53:04 PM 40.6833 -73.7333 217° Southwest 148 170 800 -800 Descending New York TRACON

Login

Don't have an account? Register now (free) for customized features, flight alerts, and more!